sensor_id;sensor_type;location;lat;lon;timestamp;P1;durP1;ratioP1;P2;durP2;ratioP2
5811;SDS011;2932;52.400;9.558;2022-12-29T00:01:50;1.70;;;1.03;;
5811;SDS011;2932;52.400;9.558;2022-12-29T00:04:16;1.97;;;1.33;;
5811;SDS011;2932;52.400;9.558;2022-12-29T00:06:42;2.73;;;1.20;;
5811;SDS011;2932;52.400;9.558;2022-12-29T00:09:08;1.47;;;1.37;;
5811;SDS011;2932;52.400;9.558;2022-12-29T00:11:33;1.57;;;1.07;;
5811;SDS011;2932;52.400;9.558;2022-12-29T00:13:59;1.40;;;1.13;;
5811;SDS011;2932;52.400;9.558;2022-12-29T00:16:43;1.83;;;1.20;;
5811;SDS011;2932;52.400;9.558;2022-12-29T00:19:10;1.67;;;1.10;;
5811;SDS011;2932;52.400;9.558;2022-12-29T00:21:57;1.80;;;1.30;;
5811;SDS011;2932;52.400;9.558;2022-12-29T00:24:41;2.47;;;1.40;;
5811;SDS011;2932;52.400;9.558;2022-12-29T00:27:19;1.40;;;1.30;;
5811;SDS011;2932;52.400;9.558;2022-12-29T00:30:10;1.17;;;1.07;;
5811;SDS011;2932;52.400;9.558;2022-12-29T00:32:55;1.20;;;1.10;;
5811;SDS011;2932;52.400;9.558;2022-12-29T00:35:43;1.30;;;1.20;;
5811;SDS011;2932;52.400;9.558;2022-12-29T00:38:11;2.60;;;1.20;;
5811;SDS011;2932;52.400;9.558;2022-12-29T00:40:56;2.17;;;1.07;;
5811;SDS011;2932;52.400;9.558;2022-12-29T00:43:40;1.30;;;0.90;;
5811;SDS011;2932;52.400;9.558;2022-12-29T00:46:24;1.50;;;1.40;;
5811;SDS011;2932;52.400;9.558;2022-12-29T00:48:49;2.17;;;1.20;;
5811;SDS011;2932;52.400;9.558;2022-12-29T00:51:33;1.37;;;1.20;;
5811;SDS011;2932;52.400;9.558;2022-12-29T00:53:58;1.43;;;1.33;;
5811;SDS011;2932;52.400;9.558;2022-12-29T00:56:24;2.17;;;1.37;;
5811;SDS011;2932;52.400;9.558;2022-12-29T00:58:49;1.17;;;1.07;;
5811;SDS011;2932;52.400;9.558;2022-12-29T01:01:14;1.90;;;1.40;;
5811;SDS011;2932;52.400;9.558;2022-12-29T01:03:40;2.20;;;1.33;;
5811;SDS011;2932;52.400;9.558;2022-12-29T01:06:06;1.27;;;1.00;;
5811;SDS011;2932;52.400;9.558;2022-12-29T01:08:33;1.30;;;1.20;;
5811;SDS011;2932;52.400;9.558;2022-12-29T01:11:17;2.20;;;0.90;;
5811;SDS011;2932;52.400;9.558;2022-12-29T01:13:42;1.50;;;0.87;;
5811;SDS011;2932;52.400;9.558;2022-12-29T01:16:08;2.00;;;0.90;;
5811;SDS011;2932;52.400;9.558;2022-12-29T01:18:33;2.10;;;1.20;;
5811;SDS011;2932;52.400;9.558;2022-12-29T01:21:02;1.13;;;0.80;;
5811;SDS011;2932;52.400;9.558;2022-12-29T01:23:30;1.03;;;1.00;;
5811;SDS011;2932;52.400;9.558;2022-12-29T01:25:55;3.27;;;1.10;;
5811;SDS011;2932;52.400;9.558;2022-12-29T01:28:21;1.13;;;0.90;;
5811;SDS011;2932;52.400;9.558;2022-12-29T01:30:47;1.60;;;1.00;;
5811;SDS011;2932;52.400;9.558;2022-12-29T01:33:12;1.43;;;0.97;;
5811;SDS011;2932;52.400;9.558;2022-12-29T01:35:38;2.20;;;1.10;;
5811;SDS011;2932;52.400;9.558;2022-12-29T01:38:03;3.93;;;1.20;;
5811;SDS011;2932;52.400;9.558;2022-12-29T01:40:29;3.07;;;1.03;;
5811;SDS011;2932;52.400;9.558;2022-12-29T01:42:54;3.50;;;0.90;;
5811;SDS011;2932;52.400;9.558;2022-12-29T01:45:19;3.07;;;1.20;;
5811;SDS011;2932;52.400;9.558;2022-12-29T01:47:58;1.47;;;1.10;;
5811;SDS011;2932;52.400;9.558;2022-12-29T01:50:33;1.07;;;0.90;;
5811;SDS011;2932;52.400;9.558;2022-12-29T01:53:05;1.00;;;1.00;;
5811;SDS011;2932;52.400;9.558;2022-12-29T01:55:58;0.97;;;0.93;;
5811;SDS011;2932;52.400;9.558;2022-12-29T01:58:26;1.97;;;1.00;;
5811;SDS011;2932;52.400;9.558;2022-12-29T02:00:55;1.73;;;1.00;;
5811;SDS011;2932;52.400;9.558;2022-12-29T02:03:21;2.00;;;1.13;;
5811;SDS011;2932;52.400;9.558;2022-12-29T02:08:40;1.97;;;1.03;;
5811;SDS011;2932;52.400;9.558;2022-12-29T02:11:05;1.00;;;1.00;;
5811;SDS011;2932;52.400;9.558;2022-12-29T02:13:32;0.83;;;0.83;;
5811;SDS011;2932;52.400;9.558;2022-12-29T02:16:02;1.67;;;1.07;;
5811;SDS011;2932;52.400;9.558;2022-12-29T02:18:51;2.50;;;1.20;;
5811;SDS011;2932;52.400;9.558;2022-12-29T02:37:40;1.87;;;0.80;;
5811;SDS011;2932;52.400;9.558;2022-12-29T02:45:18;0.83;;;0.80;;
5811;SDS011;2932;52.400;9.558;2022-12-29T02:48:04;2.53;;;0.77;;
5811;SDS011;2932;52.400;9.558;2022-12-29T02:50:43;1.57;;;0.93;;
5811;SDS011;2932;52.400;9.558;2022-12-29T02:53:26;2.00;;;0.70;;
5811;SDS011;2932;52.400;9.558;2022-12-29T02:56:13;1.17;;;0.80;;
5811;SDS011;2932;52.400;9.558;2022-12-29T02:58:38;2.33;;;0.90;;
5811;SDS011;2932;52.400;9.558;2022-12-29T03:08:55;1.53;;;0.73;;
5811;SDS011;2932;52.400;9.558;2022-12-29T03:11:28;2.80;;;0.80;;
5811;SDS011;2932;52.400;9.558;2022-12-29T03:14:25;0.70;;;0.70;;
5811;SDS011;2932;52.400;9.558;2022-12-29T03:17:24;1.53;;;0.90;;
5811;SDS011;2932;52.400;9.558;2022-12-29T03:19:57;0.80;;;0.57;;
5811;SDS011;2932;52.400;9.558;2022-12-29T03:22:26;0.77;;;0.77;;
5811;SDS011;2932;52.400;9.558;2022-12-29T03:24:58;2.10;;;0.97;;
5811;SDS011;2932;52.400;9.558;2022-12-29T03:27:36;1.00;;;0.90;;
5811;SDS011;2932;52.400;9.558;2022-12-29T03:30:06;1.00;;;0.80;;
5811;SDS011;2932;52.400;9.558;2022-12-29T03:32:55;0.80;;;0.80;;
5811;SDS011;2932;52.400;9.558;2022-12-29T03:35:22;0.67;;;0.67;;
5811;SDS011;2932;52.400;9.558;2022-12-29T03:37:57;1.53;;;0.60;;
5811;SDS011;2932;52.400;9.558;2022-12-29T03:40:25;0.83;;;0.80;;
5811;SDS011;2932;52.400;9.558;2022-12-29T03:42:53;1.43;;;0.80;;
5811;SDS011;2932;52.400;9.558;2022-12-29T03:45:20;2.20;;;0.80;;
5811;SDS011;2932;52.400;9.558;2022-12-29T03:47:45;0.80;;;0.80;;
5811;SDS011;2932;52.400;9.558;2022-12-29T03:50:11;0.80;;;0.77;;
5811;SDS011;2932;52.400;9.558;2022-12-29T03:52:37;0.83;;;0.70;;
5811;SDS011;2932;52.400;9.558;2022-12-29T03:55:03;0.70;;;0.70;;
5811;SDS011;2932;52.400;9.558;2022-12-29T03:57:28;0.77;;;0.77;;
5811;SDS011;2932;52.400;9.558;2022-12-29T03:59:53;2.00;;;0.60;;
5811;SDS011;2932;52.400;9.558;2022-12-29T04:02:19;0.90;;;0.50;;
5811;SDS011;2932;52.400;9.558;2022-12-29T04:04:44;0.50;;;0.50;;
5811;SDS011;2932;52.400;9.558;2022-12-29T04:07:09;0.70;;;0.50;;
5811;SDS011;2932;52.400;9.558;2022-12-29T04:09:36;0.53;;;0.53;;
5811;SDS011;2932;52.400;9.558;2022-12-29T04:12:01;1.33;;;0.47;;
5811;SDS011;2932;52.400;9.558;2022-12-29T04:14:26;1.70;;;0.60;;
5811;SDS011;2932;52.400;9.558;2022-12-29T04:16:51;0.40;;;0.40;;
5811;SDS011;2932;52.400;9.558;2022-12-29T04:19:17;0.63;;;0.40;;
5811;SDS011;2932;52.400;9.558;2022-12-29T04:21:42;0.40;;;0.40;;
5811;SDS011;2932;52.400;9.558;2022-12-29T04:24:07;1.60;;;0.53;;
5811;SDS011;2932;52.400;9.558;2022-12-29T04:26:33;0.57;;;0.57;;
5811;SDS011;2932;52.400;9.558;2022-12-29T04:28:58;0.50;;;0.50;;
5811;SDS011;2932;52.400;9.558;2022-12-29T04:31:23;1.40;;;0.50;;
5811;SDS011;2932;52.400;9.558;2022-12-29T04:33:49;0.40;;;0.40;;
5811;SDS011;2932;52.400;9.558;2022-12-29T04:36:14;0.37;;;0.37;;
5811;SDS011;2932;52.400;9.558;2022-12-29T04:38:40;0.53;;;0.50;;
5811;SDS011;2932;52.400;9.558;2022-12-29T04:41:05;0.30;;;0.30;;
5811;SDS011;2932;52.400;9.558;2022-12-29T04:43:30;1.33;;;0.40;;
5811;SDS011;2932;52.400;9.558;2022-12-29T04:45:56;0.30;;;0.30;;
5811;SDS011;2932;52.400;9.558;2022-12-29T04:48:21;0.47;;;0.47;;
5811;SDS011;2932;52.400;9.558;2022-12-29T04:50:47;0.40;;;0.40;;
5811;SDS011;2932;52.400;9.558;2022-12-29T04:53:14;0.67;;;0.43;;
5811;SDS011;2932;52.400;9.558;2022-12-29T04:55:40;1.13;;;0.30;;
5811;SDS011;2932;52.400;9.558;2022-12-29T04:58:05;0.97;;;0.53;;
5811;SDS011;2932;52.400;9.558;2022-12-29T05:00:30;0.60;;;0.40;;
5811;SDS011;2932;52.400;9.558;2022-12-29T05:02:56;0.63;;;0.40;;
5811;SDS011;2932;52.400;9.558;2022-12-29T05:05:21;1.30;;;0.40;;
5811;SDS011;2932;52.400;9.558;2022-12-29T05:07:47;0.33;;;0.33;;
5811;SDS011;2932;52.400;9.558;2022-12-29T05:10:12;1.47;;;0.40;;
5811;SDS011;2932;52.400;9.558;2022-12-29T05:12:38;0.30;;;0.30;;
5811;SDS011;2932;52.400;9.558;2022-12-29T05:15:04;0.40;;;0.37;;
5811;SDS011;2932;52.400;9.558;2022-12-29T05:17:33;1.37;;;0.40;;
5811;SDS011;2932;52.400;9.558;2022-12-29T05:19:59;0.73;;;0.30;;
5811;SDS011;2932;52.400;9.558;2022-12-29T05:22:24;0.53;;;0.30;;
5811;SDS011;2932;52.400;9.558;2022-12-29T05:24:50;1.93;;;0.50;;
5811;SDS011;2932;52.400;9.558;2022-12-29T05:27:15;0.33;;;0.33;;
5811;SDS011;2932;52.400;9.558;2022-12-29T05:29:40;0.23;;;0.23;;
5811;SDS011;2932;52.400;9.558;2022-12-29T05:32:06;0.40;;;0.30;;
5811;SDS011;2932;52.400;9.558;2022-12-29T05:34:31;1.37;;;0.37;;
5811;SDS011;2932;52.400;9.558;2022-12-29T05:36:56;1.03;;;0.30;;
5811;SDS011;2932;52.400;9.558;2022-12-29T05:39:22;0.73;;;0.33;;
5811;SDS011;2932;52.400;9.558;2022-12-29T05:41:47;0.63;;;0.37;;
5811;SDS011;2932;52.400;9.558;2022-12-29T05:44:13;1.37;;;0.50;;
5811;SDS011;2932;52.400;9.558;2022-12-29T05:46:38;1.37;;;0.40;;
5811;SDS011;2932;52.400;9.558;2022-12-29T05:49:04;0.60;;;0.50;;
5811;SDS011;2932;52.400;9.558;2022-12-29T05:51:30;0.63;;;0.30;;
5811;SDS011;2932;52.400;9.558;2022-12-29T05:53:55;0.60;;;0.40;;
5811;SDS011;2932;52.400;9.558;2022-12-29T05:56:20;2.53;;;0.50;;
5811;SDS011;2932;52.400;9.558;2022-12-29T05:58:46;0.43;;;0.40;;
5811;SDS011;2932;52.400;9.558;2022-12-29T06:01:11;0.20;;;0.20;;
5811;SDS011;2932;52.400;9.558;2022-12-29T06:03:37;1.37;;;0.70;;
5811;SDS011;2932;52.400;9.558;2022-12-29T06:06:02;0.20;;;0.20;;
5811;SDS011;2932;52.400;9.558;2022-12-29T06:08:28;0.63;;;0.63;;
5811;SDS011;2932;52.400;9.558;2022-12-29T06:10:53;0.37;;;0.37;;
5811;SDS011;2932;52.400;9.558;2022-12-29T06:13:18;0.60;;;0.40;;
5811;SDS011;2932;52.400;9.558;2022-12-29T06:15:43;2.40;;;0.30;;
5811;SDS011;2932;52.400;9.558;2022-12-29T06:18:09;0.37;;;0.37;;
5811;SDS011;2932;52.400;9.558;2022-12-29T06:20:34;1.10;;;0.40;;
5811;SDS011;2932;52.400;9.558;2022-12-29T06:22:59;0.30;;;0.30;;
5811;SDS011;2932;52.400;9.558;2022-12-29T06:25:25;0.47;;;0.40;;
5811;SDS011;2932;52.400;9.558;2022-12-29T06:27:50;0.77;;;0.47;;
5811;SDS011;2932;52.400;9.558;2022-12-29T06:30:15;0.67;;;0.40;;
5811;SDS011;2932;52.400;9.558;2022-12-29T06:32:41;0.87;;;0.40;;
5811;SDS011;2932;52.400;9.558;2022-12-29T06:35:07;0.50;;;0.50;;
5811;SDS011;2932;52.400;9.558;2022-12-29T06:37:33;1.10;;;0.50;;
5811;SDS011;2932;52.400;9.558;2022-12-29T06:39:58;0.73;;;0.60;;
5811;SDS011;2932;52.400;9.558;2022-12-29T06:42:24;1.00;;;0.40;;
5811;SDS011;2932;52.400;9.558;2022-12-29T06:44:49;1.10;;;0.40;;
5811;SDS011;2932;52.400;9.558;2022-12-29T06:47:14;0.50;;;0.30;;
5811;SDS011;2932;52.400;9.558;2022-12-29T06:49:40;0.83;;;0.60;;
5811;SDS011;2932;52.400;9.558;2022-12-29T06:52:05;0.40;;;0.40;;
5811;SDS011;2932;52.400;9.558;2022-12-29T06:54:31;0.60;;;0.50;;
5811;SDS011;2932;52.400;9.558;2022-12-29T06:56:56;0.60;;;0.40;;
5811;SDS011;2932;52.400;9.558;2022-12-29T06:59:23;0.40;;;0.30;;
5811;SDS011;2932;52.400;9.558;2022-12-29T07:01:48;0.30;;;0.30;;
5811;SDS011;2932;52.400;9.558;2022-12-29T07:04:13;0.47;;;0.37;;
5811;SDS011;2932;52.400;9.558;2022-12-29T07:06:39;0.57;;;0.47;;
5811;SDS011;2932;52.400;9.558;2022-12-29T07:09:05;4.60;;;0.50;;
5811;SDS011;2932;52.400;9.558;2022-12-29T07:11:31;3.37;;;0.60;;
5811;SDS011;2932;52.400;9.558;2022-12-29T07:13:56;0.33;;;0.30;;
5811;SDS011;2932;52.400;9.558;2022-12-29T07:16:22;2.57;;;0.30;;
5811;SDS011;2932;52.400;9.558;2022-12-29T07:18:47;2.93;;;0.30;;
5811;SDS011;2932;52.400;9.558;2022-12-29T07:21:13;1.00;;;0.33;;
5811;SDS011;2932;52.400;9.558;2022-12-29T07:23:38;2.00;;;0.47;;
5811;SDS011;2932;52.400;9.558;2022-12-29T07:26:04;0.50;;;0.33;;
5811;SDS011;2932;52.400;9.558;2022-12-29T07:28:32;0.57;;;0.20;;
5811;SDS011;2932;52.400;9.558;2022-12-29T07:30:58;1.77;;;0.30;;
5811;SDS011;2932;52.400;9.558;2022-12-29T07:33:24;0.83;;;0.30;;
5811;SDS011;2932;52.400;9.558;2022-12-29T07:35:50;0.63;;;0.40;;
5811;SDS011;2932;52.400;9.558;2022-12-29T07:38:15;0.87;;;0.20;;
5811;SDS011;2932;52.400;9.558;2022-12-29T07:40:41;0.47;;;0.20;;
5811;SDS011;2932;52.400;9.558;2022-12-29T07:43:07;0.83;;;0.30;;
5811;SDS011;2932;52.400;9.558;2022-12-29T07:45:32;1.47;;;0.30;;
5811;SDS011;2932;52.400;9.558;2022-12-29T07:47:58;1.60;;;0.20;;
5811;SDS011;2932;52.400;9.558;2022-12-29T07:50:23;0.83;;;0.20;;
5811;SDS011;2932;52.400;9.558;2022-12-29T07:52:48;0.67;;;0.27;;
5811;SDS011;2932;52.400;9.558;2022-12-29T07:55:14;0.47;;;0.30;;
5811;SDS011;2932;52.400;9.558;2022-12-29T07:57:40;1.47;;;0.30;;
5811;SDS011;2932;52.400;9.558;2022-12-29T08:00:06;0.20;;;0.20;;
5811;SDS011;2932;52.400;9.558;2022-12-29T08:02:32;1.97;;;0.30;;
5811;SDS011;2932;52.400;9.558;2022-12-29T08:04:57;0.20;;;0.20;;
5811;SDS011;2932;52.400;9.558;2022-12-29T08:07:22;0.50;;;0.37;;
5811;SDS011;2932;52.400;9.558;2022-12-29T08:09:47;0.43;;;0.30;;
5811;SDS011;2932;52.400;9.558;2022-12-29T08:12:13;0.23;;;0.23;;
5811;SDS011;2932;52.400;9.558;2022-12-29T08:14:38;0.77;;;0.20;;
5811;SDS011;2932;52.400;9.558;2022-12-29T08:17:03;0.47;;;0.40;;
5811;SDS011;2932;52.400;9.558;2022-12-29T08:19:29;0.77;;;0.30;;
5811;SDS011;2932;52.400;9.558;2022-12-29T08:21:54;1.60;;;0.50;;
5811;SDS011;2932;52.400;9.558;2022-12-29T08:24:20;1.03;;;0.33;;
5811;SDS011;2932;52.400;9.558;2022-12-29T08:26:45;1.03;;;0.30;;
5811;SDS011;2932;52.400;9.558;2022-12-29T08:29:10;1.80;;;0.40;;
5811;SDS011;2932;52.400;9.558;2022-12-29T08:31:36;2.80;;;0.60;;
5811;SDS011;2932;52.400;9.558;2022-12-29T08:34:01;4.00;;;0.60;;
5811;SDS011;2932;52.400;9.558;2022-12-29T08:36:28;3.07;;;0.60;;
5811;SDS011;2932;52.400;9.558;2022-12-29T08:38:54;3.17;;;0.60;;
5811;SDS011;2932;52.400;9.558;2022-12-29T08:41:19;5.97;;;0.70;;
5811;SDS011;2932;52.400;9.558;2022-12-29T08:43:47;3.50;;;0.63;;
5811;SDS011;2932;52.400;9.558;2022-12-29T08:46:14;1.03;;;0.50;;
5811;SDS011;2932;52.400;9.558;2022-12-29T08:48:40;4.23;;;0.60;;
5811;SDS011;2932;52.400;9.558;2022-12-29T08:51:05;4.13;;;0.70;;
5811;SDS011;2932;52.400;9.558;2022-12-29T08:53:30;2.17;;;0.67;;
5811;SDS011;2932;52.400;9.558;2022-12-29T08:55:59;2.67;;;0.60;;
5811;SDS011;2932;52.400;9.558;2022-12-29T08:58:25;0.77;;;0.30;;
5811;SDS011;2932;52.400;9.558;2022-12-29T09:00:55;2.40;;;0.67;;
5811;SDS011;2932;52.400;9.558;2022-12-29T09:03:22;1.13;;;0.50;;
5811;SDS011;2932;52.400;9.558;2022-12-29T09:05:48;1.43;;;0.40;;
5811;SDS011;2932;52.400;9.558;2022-12-29T09:08:15;4.80;;;0.90;;
5811;SDS011;2932;52.400;9.558;2022-12-29T09:10:41;2.67;;;0.70;;
5811;SDS011;2932;52.400;9.558;2022-12-29T09:13:06;1.90;;;0.53;;
5811;SDS011;2932;52.400;9.558;2022-12-29T09:15:31;2.10;;;0.63;;
5811;SDS011;2932;52.400;9.558;2022-12-29T09:17:57;2.17;;;0.60;;
5811;SDS011;2932;52.400;9.558;2022-12-29T09:20:22;1.17;;;0.60;;
5811;SDS011;2932;52.400;9.558;2022-12-29T09:22:47;2.17;;;0.50;;
5811;SDS011;2932;52.400;9.558;2022-12-29T09:25:14;3.40;;;0.60;;
5811;SDS011;2932;52.400;9.558;2022-12-29T09:27:40;2.23;;;0.53;;
5811;SDS011;2932;52.400;9.558;2022-12-29T09:30:06;3.40;;;0.67;;
5811;SDS011;2932;52.400;9.558;2022-12-29T09:32:34;2.50;;;0.90;;
5811;SDS011;2932;52.400;9.558;2022-12-29T09:35:00;3.30;;;0.57;;
5811;SDS011;2932;52.400;9.558;2022-12-29T09:37:25;2.23;;;0.50;;
5811;SDS011;2932;52.400;9.558;2022-12-29T09:39:51;3.00;;;0.70;;
5811;SDS011;2932;52.400;9.558;2022-12-29T09:42:19;0.77;;;0.63;;
5811;SDS011;2932;52.400;9.558;2022-12-29T09:44:56;1.30;;;0.80;;
5811;SDS011;2932;52.400;9.558;2022-12-29T09:47:23;1.03;;;0.50;;
5811;SDS011;2932;52.400;9.558;2022-12-29T09:55:49;3.47;;;1.00;;
5811;SDS011;2932;52.400;9.558;2022-12-29T09:58:21;3.47;;;1.10;;
5811;SDS011;2932;52.400;9.558;2022-12-29T10:00:56;2.90;;;0.80;;
5811;SDS011;2932;52.400;9.558;2022-12-29T10:03:26;3.47;;;0.73;;
5811;SDS011;2932;52.400;9.558;2022-12-29T10:06:10;4.83;;;0.80;;
5811;SDS011;2932;52.400;9.558;2022-12-29T10:08:39;3.40;;;0.93;;
5811;SDS011;2932;52.400;9.558;2022-12-29T10:16:20;1.67;;;1.37;;
5811;SDS011;2932;52.400;9.558;2022-12-29T10:24:11;0.60;;;0.60;;
5811;SDS011;2932;52.400;9.558;2022-12-29T10:26:39;1.90;;;0.70;;
5811;SDS011;2932;52.400;9.558;2022-12-29T10:29:08;1.73;;;0.70;;
5811;SDS011;2932;52.400;9.558;2022-12-29T10:32:44;1.70;;;0.60;;
5811;SDS011;2932;52.400;9.558;2022-12-29T10:35:05;0.90;;;0.50;;
5811;SDS011;2932;52.400;9.558;2022-12-29T10:38:13;2.00;;;1.07;;
5811;SDS011;2932;52.400;9.558;2022-12-29T10:40:43;1.73;;;0.90;;
5811;SDS011;2932;52.400;9.558;2022-12-29T10:43:33;1.43;;;0.60;;
5811;SDS011;2932;52.400;9.558;2022-12-29T10:46:12;2.17;;;0.70;;
5811;SDS011;2932;52.400;9.558;2022-12-29T10:48:41;2.17;;;0.83;;
5811;SDS011;2932;52.400;9.558;2022-12-29T10:51:10;2.60;;;0.60;;
5811;SDS011;2932;52.400;9.558;2022-12-29T10:53:45;4.10;;;0.90;;
5811;SDS011;2932;52.400;9.558;2022-12-29T10:56:29;2.03;;;0.40;;
5811;SDS011;2932;52.400;9.558;2022-12-29T10:58:56;2.73;;;1.43;;
5811;SDS011;2932;52.400;9.558;2022-12-29T11:01:27;3.23;;;0.97;;
5811;SDS011;2932;52.400;9.558;2022-12-29T11:04:07;2.90;;;0.70;;
5811;SDS011;2932;52.400;9.558;2022-12-29T11:06:40;3.07;;;0.73;;
5811;SDS011;2932;52.400;9.558;2022-12-29T11:09:09;4.23;;;0.70;;
5811;SDS011;2932;52.400;9.558;2022-12-29T11:11:41;2.83;;;0.60;;
5811;SDS011;2932;52.400;9.558;2022-12-29T11:16:40;1.37;;;0.70;;
5811;SDS011;2932;52.400;9.558;2022-12-29T11:19:19;2.53;;;0.70;;
5811;SDS011;2932;52.400;9.558;2022-12-29T11:21:48;2.20;;;0.70;;
5811;SDS011;2932;52.400;9.558;2022-12-29T11:24:22;0.73;;;0.63;;
5811;SDS011;2932;52.400;9.558;2022-12-29T11:26:48;1.73;;;0.90;;
5811;SDS011;2932;52.400;9.558;2022-12-29T11:31:41;1.63;;;0.93;;
5811;SDS011;2932;52.400;9.558;2022-12-29T11:37:06;3.33;;;0.93;;
5811;SDS011;2932;52.400;9.558;2022-12-29T11:42:40;3.17;;;0.80;;
5811;SDS011;2932;52.400;9.558;2022-12-29T11:45:16;2.50;;;1.07;;
5811;SDS011;2932;52.400;9.558;2022-12-29T11:47:45;2.03;;;0.80;;
5811;SDS011;2932;52.400;9.558;2022-12-29T11:50:18;2.47;;;1.20;;
5811;SDS011;2932;52.400;9.558;2022-12-29T11:52:46;3.67;;;0.90;;
5811;SDS011;2932;52.400;9.558;2022-12-29T11:55:20;5.38;;;0.95;;
5811;SDS011;2932;52.400;9.558;2022-12-29T11:57:49;2.43;;;0.80;;
5811;SDS011;2932;52.400;9.558;2022-12-29T12:00:17;1.30;;;0.60;;
5811;SDS011;2932;52.400;9.558;2022-12-29T12:10:45;1.83;;;0.60;;
5811;SDS011;2932;52.400;9.558;2022-12-29T12:15:49;2.83;;;0.80;;
5811;SDS011;2932;52.400;9.558;2022-12-29T12:21:22;1.50;;;0.60;;
5811;SDS011;2932;52.400;9.558;2022-12-29T12:26:42;5.13;;;0.80;;
5811;SDS011;2932;52.400;9.558;2022-12-29T12:29:13;0.83;;;0.50;;
5811;SDS011;2932;52.400;9.558;2022-12-29T12:34:37;2.53;;;0.73;;
5811;SDS011;2932;52.400;9.558;2022-12-29T12:37:10;1.93;;;0.60;;
5811;SDS011;2932;52.400;9.558;2022-12-29T13:10:50;6.90;;;1.47;;
5811;SDS011;2932;52.400;9.558;2022-12-29T13:18:35;4.17;;;0.77;;
5811;SDS011;2932;52.400;9.558;2022-12-29T13:24:17;1.40;;;0.60;;
5811;SDS011;2932;52.400;9.558;2022-12-29T13:26:52;5.67;;;1.23;;
5811;SDS011;2932;52.400;9.558;2022-12-29T13:37:31;4.27;;;0.60;;
5811;SDS011;2932;52.400;9.558;2022-12-29T13:40:02;3.30;;;0.70;;
5811;SDS011;2932;52.400;9.558;2022-12-29T13:42:35;3.70;;;1.00;;
5811;SDS011;2932;52.400;9.558;2022-12-29T13:45:10;4.50;;;1.33;;
5811;SDS011;2932;52.400;9.558;2022-12-29T13:47:52;4.20;;;0.90;;
5811;SDS011;2932;52.400;9.558;2022-12-29T13:50:23;2.83;;;1.00;;
5811;SDS011;2932;52.400;9.558;2022-12-29T13:53:01;4.10;;;0.90;;
5811;SDS011;2932;52.400;9.558;2022-12-29T13:55:57;1.63;;;0.80;;
5811;SDS011;2932;52.400;9.558;2022-12-29T14:01:34;1.90;;;0.70;;
5811;SDS011;2932;52.400;9.558;2022-12-29T14:04:11;3.37;;;1.03;;
5811;SDS011;2932;52.400;9.558;2022-12-29T14:06:38;3.70;;;0.83;;
5811;SDS011;2932;52.400;9.558;2022-12-29T14:09:34;2.70;;;0.70;;
5811;SDS011;2932;52.400;9.558;2022-12-29T14:11:57;4.23;;;0.90;;
5811;SDS011;2932;52.400;9.558;2022-12-29T14:14:23;4.90;;;0.87;;
5811;SDS011;2932;52.400;9.558;2022-12-29T14:16:53;3.27;;;0.97;;
5811;SDS011;2932;52.400;9.558;2022-12-29T14:19:40;0.70;;;0.60;;
5811;SDS011;2932;52.400;9.558;2022-12-29T14:22:06;6.43;;;1.23;;
5811;SDS011;2932;52.400;9.558;2022-12-29T14:34:52;6.47;;;0.90;;
5811;SDS011;2932;52.400;9.558;2022-12-29T14:39:47;4.40;;;2.20;;
5811;SDS011;2932;52.400;9.558;2022-12-29T14:44:49;5.50;;;1.00;;
5811;SDS011;2932;52.400;9.558;2022-12-29T14:49:56;3.07;;;1.20;;
5811;SDS011;2932;52.400;9.558;2022-12-29T14:52:29;3.43;;;1.10;;
5811;SDS011;2932;52.400;9.558;2022-12-29T14:57:45;3.27;;;1.07;;
5811;SDS011;2932;52.400;9.558;2022-12-29T15:00:19;2.20;;;0.90;;
5811;SDS011;2932;52.400;9.558;2022-12-29T15:02:54;3.07;;;0.80;;
5811;SDS011;2932;52.400;9.558;2022-12-29T15:05:30;3.03;;;0.90;;
5811;SDS011;2932;52.400;9.558;2022-12-29T15:08:00;2.50;;;0.70;;
5811;SDS011;2932;52.400;9.558;2022-12-29T15:10:31;4.03;;;1.23;;
5811;SDS011;2932;52.400;9.558;2022-12-29T15:13:03;3.10;;;0.80;;
5811;SDS011;2932;52.400;9.558;2022-12-29T15:15:35;3.47;;;0.93;;
5811;SDS011;2932;52.400;9.558;2022-12-29T15:18:13;2.17;;;0.70;;
5811;SDS011;2932;52.400;9.558;2022-12-29T15:20:45;4.33;;;0.80;;
5811;SDS011;2932;52.400;9.558;2022-12-29T15:23:10;2.40;;;0.60;;
5811;SDS011;2932;52.400;9.558;2022-12-29T15:25:59;4.60;;;0.97;;
5811;SDS011;2932;52.400;9.558;2022-12-29T15:28:26;1.77;;;0.60;;
5811;SDS011;2932;52.400;9.558;2022-12-29T15:31:04;3.80;;;0.93;;
5811;SDS011;2932;52.400;9.558;2022-12-29T15:33:37;4.90;;;1.80;;
5811;SDS011;2932;52.400;9.558;2022-12-29T15:36:05;3.80;;;0.80;;
5811;SDS011;2932;52.400;9.558;2022-12-29T15:38:36;2.73;;;0.70;;
5811;SDS011;2932;52.400;9.558;2022-12-29T15:41:06;4.33;;;0.87;;
5811;SDS011;2932;52.400;9.558;2022-12-29T15:43:53;3.50;;;1.20;;
5811;SDS011;2932;52.400;9.558;2022-12-29T15:46:32;3.70;;;0.80;;
5811;SDS011;2932;52.400;9.558;2022-12-29T15:48:58;3.97;;;0.90;;
5811;SDS011;2932;52.400;9.558;2022-12-29T15:51:30;3.57;;;0.83;;
5811;SDS011;2932;52.400;9.558;2022-12-29T15:53:59;4.83;;;1.10;;
5811;SDS011;2932;52.400;9.558;2022-12-29T15:56:27;3.80;;;1.47;;
5811;SDS011;2932;52.400;9.558;2022-12-29T15:58:54;4.53;;;1.10;;
5811;SDS011;2932;52.400;9.558;2022-12-29T16:01:35;5.30;;;1.40;;
5811;SDS011;2932;52.400;9.558;2022-12-29T16:04:05;5.60;;;1.20;;
5811;SDS011;2932;52.400;9.558;2022-12-29T16:06:39;3.13;;;1.10;;
5811;SDS011;2932;52.400;9.558;2022-12-29T16:09:15;5.30;;;1.10;;
5811;SDS011;2932;52.400;9.558;2022-12-29T16:14:20;4.47;;;1.10;;
5811;SDS011;2932;52.400;9.558;2022-12-29T16:16:55;3.70;;;1.00;;
5811;SDS011;2932;52.400;9.558;2022-12-29T16:19:26;5.10;;;1.07;;
5811;SDS011;2932;52.400;9.558;2022-12-29T16:21:54;5.67;;;0.97;;
5811;SDS011;2932;52.400;9.558;2022-12-29T16:24:21;2.87;;;0.90;;
5811;SDS011;2932;52.400;9.558;2022-12-29T16:27:16;2.93;;;1.23;;
5811;SDS011;2932;52.400;9.558;2022-12-29T16:29:41;7.13;;;1.37;;
5811;SDS011;2932;52.400;9.558;2022-12-29T16:32:22;4.70;;;1.10;;
5811;SDS011;2932;52.400;9.558;2022-12-29T16:37:44;5.93;;;1.40;;
5811;SDS011;2932;52.400;9.558;2022-12-29T16:42:47;6.90;;;1.37;;
5811;SDS011;2932;52.400;9.558;2022-12-29T16:47:43;6.87;;;1.33;;
5811;SDS011;2932;52.400;9.558;2022-12-29T16:50:11;5.10;;;1.30;;
5811;SDS011;2932;52.400;9.558;2022-12-29T16:52:42;5.37;;;1.63;;
5811;SDS011;2932;52.400;9.558;2022-12-29T16:55:14;4.97;;;1.30;;
5811;SDS011;2932;52.400;9.558;2022-12-29T16:57:41;4.27;;;1.83;;
5811;SDS011;2932;52.400;9.558;2022-12-29T17:00:17;6.50;;;1.90;;
5811;SDS011;2932;52.400;9.558;2022-12-29T17:02:45;11.50;;;5.97;;
5811;SDS011;2932;52.400;9.558;2022-12-29T17:05:14;6.23;;;3.43;;
5811;SDS011;2932;52.400;9.558;2022-12-29T17:07:41;5.83;;;3.43;;
5811;SDS011;2932;52.400;9.558;2022-12-29T17:10:06;4.53;;;3.10;;
5811;SDS011;2932;52.400;9.558;2022-12-29T17:12:32;3.03;;;1.63;;
5811;SDS011;2932;52.400;9.558;2022-12-29T17:17:48;6.77;;;1.20;;
5811;SDS011;2932;52.400;9.558;2022-12-29T17:20:23;4.70;;;1.43;;
5811;SDS011;2932;52.400;9.558;2022-12-29T17:22:50;6.27;;;1.70;;
5811;SDS011;2932;52.400;9.558;2022-12-29T17:25:20;1.93;;;0.97;;
5811;SDS011;2932;52.400;9.558;2022-12-29T17:27:57;4.40;;;1.30;;
5811;SDS011;2932;52.400;9.558;2022-12-29T17:30:25;6.57;;;1.60;;
5811;SDS011;2932;52.400;9.558;2022-12-29T17:32:53;2.57;;;1.40;;
5811;SDS011;2932;52.400;9.558;2022-12-29T17:35:22;6.17;;;1.20;;
5811;SDS011;2932;52.400;9.558;2022-12-29T17:37:48;4.07;;;1.47;;
5811;SDS011;2932;52.400;9.558;2022-12-29T17:40:18;4.97;;;1.73;;
5811;SDS011;2932;52.400;9.558;2022-12-29T17:42:49;2.07;;;1.07;;
5811;SDS011;2932;52.400;9.558;2022-12-29T17:45:19;5.40;;;1.10;;
5811;SDS011;2932;52.400;9.558;2022-12-29T17:47:47;3.23;;;1.03;;
5811;SDS011;2932;52.400;9.558;2022-12-29T17:50:14;4.23;;;0.83;;
5811;SDS011;2932;52.400;9.558;2022-12-29T17:52:41;5.20;;;1.13;;
5811;SDS011;2932;52.400;9.558;2022-12-29T17:55:17;5.60;;;1.30;;
5811;SDS011;2932;52.400;9.558;2022-12-29T17:57:44;2.70;;;1.03;;
5811;SDS011;2932;52.400;9.558;2022-12-29T18:00:13;4.07;;;1.23;;
5811;SDS011;2932;52.400;9.558;2022-12-29T18:02:40;3.47;;;0.90;;
5811;SDS011;2932;52.400;9.558;2022-12-29T18:05:08;4.30;;;1.00;;
5811;SDS011;2932;52.400;9.558;2022-12-29T18:07:58;2.43;;;0.90;;
5811;SDS011;2932;52.400;9.558;2022-12-29T18:10:25;2.23;;;0.73;;
5811;SDS011;2932;52.400;9.558;2022-12-29T18:12:53;4.27;;;0.80;;
5811;SDS011;2932;52.400;9.558;2022-12-29T18:17:46;0.80;;;0.77;;